Terminal Aerodrome Forecast
Issued by NWS

Home | Current Version | Previous Version | Graphics & Text | Print | Product List | Glossary On
Versions: 1 2 3 4 5 6 7 8 9 10 11 12 13 14 15 16 17 18
000
FTUS42 KMHX 140531
TAFISO
TAF
KISO 140531Z 1406/1506 00000KT 4SM BR OVC005
     FM141000 00000KT 1/2SM FG OVC003
     FM141400 00000KT 4SM BR OVC010
     FM141600 VRB03KT P6SM BKN025
     FM141800 VRB03KT P6SM -SHRA VCTS BKN025CB
     FM150000 00000KT P6SM BKN035
      AMD LTD TO CLD VIS AND WIND=

USA.gov is the U.S. government's official web portal to all federal, state and local government web resources and services.